createdAt,value
2019-03-11T00:01:23.329Z,55.71
2019-03-11T00:03:54.575Z,55.69
2019-03-11T00:06:25.957Z,55.53
2019-03-11T00:08:57.170Z,55.67
2019-03-11T00:11:28.316Z,55.95
2019-03-11T00:13:59.358Z,55.27
2019-03-11T00:16:30.534Z,54.52
2019-03-11T00:19:01.870Z,54.34
2019-03-11T00:21:33.011Z,54.04
2019-03-11T00:24:04.056Z,54.16
2019-03-11T00:26:35.110Z,54.27
2019-03-11T00:29:06.252Z,53.82
2019-03-11T00:31:37.274Z,54.20
2019-03-11T00:34:08.299Z,53.94
2019-03-11T00:36:40.360Z,54.17
2019-03-11T00:39:11.535Z,54.47
2019-03-11T00:41:42.652Z,54.57
2019-03-11T00:44:13.787Z,54.02
2019-03-11T00:46:44.883Z,54.39
2019-03-11T00:49:16.027Z,53.76
2019-03-11T00:51:47.137Z,53.71
2019-03-11T00:54:18.111Z,53.35
2019-03-11T00:56:49.143Z,53.22
2019-03-11T00:59:20.283Z,52.93
2019-03-11T01:01:52.307Z,53.04
2019-03-11T01:04:23.615Z,53.08
2019-03-11T01:06:54.616Z,53.41
2019-03-11T01:09:25.641Z,53.71
2019-03-11T01:11:56.707Z,53.60
2019-03-11T01:14:27.752Z,53.10
2019-03-11T01:16:58.795Z,53.15
2019-03-11T01:19:29.877Z,52.85
2019-03-11T01:22:00.976Z,53.12
2019-03-11T01:24:32.035Z,53.14
2019-03-11T01:27:03.124Z,52.96
2019-03-11T01:29:34.312Z,53.21
2019-03-11T01:32:05.254Z,53.76
2019-03-11T01:34:36.299Z,53.55
2019-03-11T01:37:07.372Z,53.52
2019-03-11T01:39:38.605Z,54.26
2019-03-11T01:42:09.860Z,55.04
2019-03-11T01:44:41.133Z,54.77
2019-03-11T01:47:12.319Z,55.18
2019-03-11T01:49:43.414Z,55.18
2019-03-11T01:52:14.529Z,55.22
2019-03-11T01:54:45.687Z,55.58
2019-03-11T01:57:19.665Z,56.01
2019-03-11T01:59:50.546Z,55.91
2019-03-11T02:02:21.719Z,55.82
2019-03-11T02:04:52.792Z,55.60
2019-03-11T02:07:23.814Z,54.77
2019-03-11T02:09:55.049Z,55.16
2019-03-11T02:12:26.118Z,54.58
2019-03-11T02:14:57.426Z,54.61
2019-03-11T02:17:28.415Z,54.53
2019-03-11T02:19:59.471Z,54.47
2019-03-11T02:22:30.609Z,54.63
2019-03-11T02:25:01.702Z,54.66
2019-03-11T02:27:32.855Z,55.00
2019-03-11T02:30:05.524Z,55.15
2019-03-11T02:32:36.749Z,55.36
2019-03-11T02:35:07.894Z,55.35
2019-03-11T02:37:38.975Z,54.81
2019-03-11T02:40:14.480Z,54.46
2019-03-11T02:42:45.748Z,54.53
2019-03-11T02:45:16.899Z,53.92
2019-03-11T02:47:47.861Z,53.18
2019-03-11T02:50:18.880Z,53.12
2019-03-11T02:52:49.980Z,53.08
2019-03-11T02:55:21.010Z,52.47
2019-03-11T02:57:52.074Z,52.60
2019-03-11T03:00:23.296Z,52.21
2019-03-11T03:03:14.096Z,52.95
2019-03-11T03:05:49.311Z,52.62
2019-03-11T03:08:20.384Z,53.17
2019-03-11T03:10:51.545Z,53.44
2019-03-11T03:13:23.613Z,53.57
2019-03-11T03:15:54.807Z,54.02
2019-03-11T03:18:25.851Z,53.50
2019-03-11T03:20:57.031Z,53.58
2019-03-11T03:23:28.202Z,53.90
2019-03-11T03:26:02.253Z,53.90
2019-03-11T03:28:33.203Z,54.31
2019-03-11T03:31:04.330Z,54.00
2019-03-11T03:33:35.397Z,53.94
2019-03-11T03:36:06.561Z,54.35
2019-03-11T03:38:37.493Z,54.37
2019-03-11T03:41:08.495Z,54.09
2019-03-11T03:43:40.783Z,54.14
2019-03-11T03:46:18.817Z,54.40
2019-03-11T03:48:46.044Z,54.42
2019-03-11T03:51:17.177Z,53.99
2019-03-11T03:53:48.193Z,54.01
2019-03-11T03:56:19.298Z,53.69
2019-03-11T03:58:50.354Z,52.87
2019-03-11T04:01:21.465Z,52.50
2019-03-11T04:03:52.592Z,52.85
2019-03-11T04:06:23.721Z,52.88
2019-03-11T04:08:54.990Z,52.73
2019-03-11T04:11:25.930Z,53.26
2019-03-11T04:13:56.987Z,52.74
2019-03-11T04:16:27.976Z,52.91
2019-03-11T04:18:59.017Z,52.44
2019-03-11T04:21:30.332Z,52.36
2019-03-11T04:24:01.454Z,52.23
2019-03-11T04:26:32.562Z,52.26
2019-03-11T04:29:03.554Z,52.36
2019-03-11T04:31:34.719Z,52.32
2019-03-11T04:34:05.845Z,53.07
2019-03-11T04:36:36.905Z,53.25
2019-03-11T04:39:07.932Z,52.69
2019-03-11T04:41:38.926Z,52.34
2019-03-11T04:44:10.109Z,51.83
2019-03-11T04:46:41.315Z,51.27
2019-03-11T04:49:12.467Z,51.32
2019-03-11T04:51:43.518Z,51.61
2019-03-11T04:54:14.517Z,52.28
2019-03-11T04:56:45.587Z,52.56
2019-03-11T04:59:16.500Z,53.79
2019-03-11T05:01:53.261Z,54.30
2019-03-11T05:04:24.339Z,54.83
2019-03-11T05:06:55.375Z,55.53
2019-03-11T05:09:26.277Z,55.56
2019-03-11T05:11:58.529Z,55.90
2019-03-11T05:14:29.575Z,55.68
2019-03-11T05:17:01.016Z,55.48
2019-03-11T05:19:32.061Z,55.23
2019-03-11T05:22:04.189Z,55.72
2019-03-11T05:24:35.281Z,55.80
2019-03-11T05:27:06.280Z,55.80
2019-03-11T05:29:37.292Z,55.71
2019-03-11T05:32:11.950Z,55.76
2019-03-11T05:34:44.044Z,55.72
2019-03-11T05:37:16.933Z,55.59
2019-03-11T05:39:48.122Z,55.72
2019-03-11T05:42:19.156Z,55.81
2019-03-11T05:44:50.631Z,55.99
2019-03-11T05:47:21.895Z,55.57
2019-03-11T05:49:53.046Z,55.45
2019-03-11T05:52:24.435Z,55.15
2019-03-11T05:54:55.759Z,55.27
2019-03-11T05:57:26.993Z,55.29
2019-03-11T05:59:58.140Z,55.13
2019-03-11T06:02:29.290Z,55.20
2019-03-11T06:05:02.638Z,55.35
2019-03-11T06:07:34.065Z,55.75
2019-03-11T06:10:07.634Z,55.57
2019-03-11T06:12:38.684Z,55.59
2019-03-11T06:15:13.917Z,55.94
2019-03-11T06:17:46.300Z,55.75
2019-03-11T06:20:31.424Z,55.72
2019-03-11T06:23:04.103Z,56.11
2019-03-11T06:25:35.117Z,55.87
2019-03-11T06:28:06.173Z,55.98
2019-03-11T06:30:37.501Z,56.59
2019-03-11T06:33:08.777Z,56.29
2019-03-11T06:35:40.488Z,56.41
2019-03-11T06:38:16.777Z,56.69
2019-03-11T06:40:47.901Z,56.77
2019-03-11T06:43:19.222Z,56.41
2019-03-11T06:45:50.382Z,56.40
2019-03-11T06:48:21.564Z,56.49
2019-03-11T06:50:52.594Z,56.10
2019-03-11T06:53:23.750Z,56.30
2019-03-11T06:55:55.649Z,55.87
2019-03-11T06:58:26.741Z,55.50
2019-03-11T07:00:57.770Z,55.23
2019-03-11T07:03:28.886Z,54.55
2019-03-11T07:06:00.085Z,54.41
2019-03-11T07:08:34.642Z,54.48
2019-03-11T07:11:06.027Z,54.55
2019-03-11T07:13:37.154Z,54.80
2019-03-11T07:16:09.636Z,54.75
2019-03-11T07:18:42.779Z,54.49
2019-03-11T07:21:15.168Z,54.75
2019-03-11T07:23:48.668Z,54.53
2019-03-11T07:26:19.893Z,54.15
2019-03-11T07:28:52.815Z,54.24
2019-03-11T07:31:24.267Z,54.12
2019-03-11T07:33:56.689Z,54.03
2019-03-11T07:36:27.833Z,53.87
2019-03-11T07:38:59.702Z,53.90
2019-03-11T07:41:31.095Z,53.98
2019-03-11T07:44:02.613Z,53.74
2019-03-11T07:46:34.499Z,53.73
2019-03-11T07:49:05.858Z,53.73
2019-03-11T07:51:36.900Z,53.66
2019-03-11T07:54:08.115Z,53.72
2019-03-11T07:56:39.198Z,53.64
2019-03-11T07:59:10.412Z,53.89
2019-03-11T08:01:41.380Z,54.12
2019-03-11T08:04:12.486Z,54.20
2019-03-11T08:06:52.120Z,54.10
2019-03-11T08:09:37.057Z,54.18
2019-03-11T08:15:16.509Z,54.39
2019-03-11T08:17:47.774Z,54.74
2019-03-11T08:20:19.846Z,55.53
2019-03-11T08:22:50.988Z,55.79
2019-03-11T08:25:23.121Z,56.46
2019-03-11T08:27:54.554Z,56.53
2019-03-11T08:30:25.668Z,56.38
2019-03-11T08:32:57.576Z,56.65
2019-03-11T08:35:34.611Z,56.76
2019-03-11T08:38:06.787Z,56.53
2019-03-11T08:40:38.314Z,56.98
2019-03-11T08:43:12.650Z,57.01
2019-03-11T08:45:44.336Z,56.71
2019-03-11T08:48:15.550Z,56.71
2019-03-11T08:50:46.618Z,56.91
2019-03-11T08:53:22.038Z,57.16
2019-03-11T08:55:53.283Z,56.90
2019-03-11T08:58:28.378Z,56.88
2019-03-11T09:00:59.972Z,57.42
2019-03-11T09:03:33.342Z,56.90
2019-03-11T09:06:04.838Z,57.02
2019-03-11T09:08:40.467Z,58.00
2019-03-11T09:11:11.577Z,57.93
2019-03-11T09:13:43.611Z,57.80
2019-03-11T09:16:14.755Z,57.97
2019-03-11T09:18:46.008Z,57.77
2019-03-11T09:21:17.312Z,57.75
2019-03-11T09:23:48.462Z,58.55
2019-03-11T09:26:19.605Z,59.06
2019-03-11T09:28:50.656Z,59.64
2019-03-11T09:31:21.751Z,60.51
2019-03-11T09:33:52.932Z,60.94
2019-03-11T09:36:23.992Z,61.07
2019-03-11T09:38:59.529Z,61.32
2019-03-11T09:41:30.988Z,61.22
2019-03-11T09:44:02.060Z,61.28
2019-03-11T09:46:33.303Z,61.24
2019-03-11T09:49:04.601Z,61.34
2019-03-11T09:51:35.692Z,60.97
2019-03-11T09:54:06.823Z,61.27
2019-03-11T09:56:43.127Z,61.41
2019-03-11T09:59:10.901Z,60.86
2019-03-11T10:01:41.956Z,60.62
2019-03-11T10:04:13.248Z,60.66
2019-03-11T10:06:44.604Z,60.91
2019-03-11T10:09:17.092Z,61.00
2019-03-11T10:11:48.413Z,60.85
2019-03-11T10:14:19.560Z,60.75
2019-03-11T10:16:50.812Z,61.10
2019-03-11T10:19:21.973Z,60.79
2019-03-11T10:21:58.504Z,60.64
2019-03-11T10:24:30.834Z,60.53
2019-03-11T10:27:11.649Z,60.27
2019-03-11T10:29:42.748Z,59.85
2019-03-11T10:32:14.021Z,60.07
2019-03-11T10:34:45.204Z,59.94
2019-03-11T10:37:16.726Z,60.17
2019-03-11T10:39:48.261Z,60.45
2019-03-11T10:42:19.828Z,60.64
2019-03-11T10:44:51.060Z,60.92
2019-03-11T10:47:22.529Z,60.90
2019-03-11T10:49:55.811Z,60.71
2019-03-11T10:52:28.584Z,60.33
2019-03-11T10:55:00.957Z,60.15
2019-03-11T10:57:32.649Z,59.96
2019-03-11T11:00:12.061Z,60.00
2019-03-11T11:02:43.356Z,59.93
2019-03-11T11:05:17.937Z,59.88
2019-03-11T11:07:49.800Z,59.80
2019-03-11T11:10:21.335Z,60.00
2019-03-11T11:12:54.382Z,59.43
2019-03-11T11:15:26.895Z,58.79
2019-03-11T11:17:58.570Z,58.09
2019-03-11T11:20:29.830Z,58.27
2019-03-11T11:23:01.176Z,58.21
2019-03-11T11:25:32.413Z,58.25
2019-03-11T11:28:05.261Z,58.22
2019-03-11T11:30:37.046Z,58.40
2019-03-11T11:33:08.348Z,58.02
2019-03-11T11:35:39.526Z,57.96
2019-03-11T11:38:10.737Z,57.83
2019-03-11T11:40:42.103Z,56.85
2019-03-11T11:43:13.442Z,55.86
2019-03-11T11:46:01.612Z,55.87
2019-03-11T11:48:33.595Z,55.64
2019-03-11T11:51:04.873Z,55.42
2019-03-11T11:53:36.893Z,55.07
2019-03-11T11:56:20.605Z,54.93
2019-03-11T11:58:54.621Z,54.99
2019-03-11T12:01:25.947Z,55.60
2019-03-11T12:03:59.178Z,56.11
2019-03-11T12:06:58.542Z,56.03
2019-03-11T12:09:34.596Z,56.08
2019-03-11T12:12:07.082Z,56.24
2019-03-11T12:14:38.672Z,55.76
2019-03-11T12:17:10.618Z,55.84
2019-03-11T12:19:55.020Z,54.82
2019-03-11T12:22:30.983Z,54.08
2019-03-11T12:25:15.091Z,53.92
2019-03-11T12:28:00.741Z,53.81
2019-03-11T12:30:37.559Z,53.63
2019-03-11T12:33:14.993Z,53.38
2019-03-11T12:35:50.686Z,52.97
2019-03-11T12:38:22.121Z,52.23
2019-03-11T12:40:53.806Z,51.47
2019-03-11T12:43:25.020Z,51.43
2019-03-11T12:46:01.801Z,50.95
2019-03-11T12:48:34.081Z,49.45
2019-03-11T12:51:05.594Z,49.30
2019-03-11T12:53:36.712Z,49.08
2019-03-11T12:56:08.107Z,48.87
2019-03-11T12:58:42.053Z,48.80
2019-03-11T13:01:13.258Z,49.19
2019-03-11T13:03:44.372Z,49.30
2019-03-11T13:09:40.823Z,49.61
2019-03-11T13:12:17.095Z,50.07
2019-03-11T13:15:13.043Z,50.05
2019-03-11T13:17:44.552Z,50.04
2019-03-11T13:20:21.666Z,49.53
2019-03-11T13:22:53.096Z,48.58
2019-03-11T13:25:24.378Z,48.96
2019-03-11T13:27:55.649Z,48.14
2019-03-11T13:30:27.202Z,47.58
2019-03-11T13:32:58.548Z,46.80
2019-03-11T13:35:29.991Z,45.53
2019-03-11T13:38:03.407Z,44.92
2019-03-11T13:40:34.500Z,44.63
2019-03-11T13:43:05.900Z,44.96
2019-03-11T13:45:37.021Z,44.02
2019-03-11T13:48:08.483Z,44.54
2019-03-11T13:50:39.814Z,45.22
2019-03-11T13:53:11.036Z,45.41
2019-03-11T13:55:42.381Z,45.86
2019-03-11T13:58:17.707Z,46.26
2019-03-11T14:00:56.814Z,47.13
2019-03-11T14:03:25.824Z,47.91
2019-03-11T14:05:56.902Z,48.19
2019-03-11T14:08:45.222Z,47.78
2019-03-11T14:11:17.464Z,48.29
2019-03-11T14:14:00.006Z,48.33
2019-03-11T14:16:31.279Z,48.53
2019-03-11T14:19:16.242Z,48.82
2019-03-11T14:21:48.081Z,48.84
2019-03-11T14:24:19.404Z,49.15
2019-03-11T14:26:51.021Z,49.03
2019-03-11T14:29:24.305Z,48.93
2019-03-11T14:31:56.212Z,49.26
2019-03-11T14:34:27.349Z,49.27
2019-03-11T14:37:01.949Z,49.68
2019-03-11T14:39:33.425Z,50.13
2019-03-11T14:42:05.418Z,50.63
2019-03-11T14:44:36.598Z,51.11
2019-03-11T14:47:07.679Z,51.80
2019-03-11T14:49:38.899Z,52.37
2019-03-11T14:52:10.140Z,52.89
2019-03-11T14:54:41.713Z,52.46
2019-03-11T14:57:12.763Z,51.39
2019-03-11T14:59:44.369Z,51.55
2019-03-11T15:02:16.753Z,51.17
2019-03-11T15:04:47.934Z,50.39
2019-03-11T15:07:21.735Z,50.10
2019-03-11T15:09:54.638Z,50.42
2019-03-11T15:12:26.114Z,50.65
2019-03-11T15:14:57.205Z,50.67
2019-03-11T15:17:28.351Z,49.04
2019-03-11T15:19:59.553Z,47.80
2019-03-11T15:22:32.218Z,47.13
2019-03-11T15:25:03.740Z,47.03
2019-03-11T15:27:34.897Z,45.90
2019-03-11T15:30:18.034Z,45.61
2019-03-11T15:32:53.662Z,45.82
2019-03-11T15:35:25.701Z,46.07
2019-03-11T15:37:56.800Z,45.49
2019-03-11T15:40:27.861Z,45.82
2019-03-11T15:42:59.055Z,45.28
2019-03-11T15:45:38.166Z,45.13
2019-03-11T15:48:03.368Z,45.49
2019-03-11T15:50:36.111Z,45.68
2019-03-11T15:53:07.464Z,45.49
2019-03-11T15:55:38.656Z,45.39
2019-03-11T15:58:09.762Z,45.64
2019-03-11T16:00:40.934Z,46.01
2019-03-11T16:03:12.213Z,45.91
2019-03-11T16:05:43.564Z,46.11
2019-03-11T16:08:14.795Z,46.26
2019-03-11T16:10:45.933Z,46.33
2019-03-11T16:13:17.172Z,46.83
2019-03-11T16:15:48.413Z,46.57
2019-03-11T16:18:19.810Z,46.53
2019-03-11T16:20:52.086Z,46.79
2019-03-11T16:23:23.276Z,46.84
2019-03-11T16:25:54.503Z,46.93
2019-03-11T16:28:27.950Z,47.05
2019-03-11T16:31:04.170Z,47.08
2019-03-11T16:33:35.321Z,47.28
2019-03-11T16:36:06.557Z,47.17
2019-03-11T16:38:37.831Z,47.53
2019-03-11T16:41:09.000Z,47.68
2019-03-11T16:43:42.329Z,47.86
2019-03-11T16:46:15.000Z,48.19
2019-03-11T16:48:46.078Z,48.23
2019-03-11T16:51:17.234Z,48.17
2019-03-11T16:53:48.276Z,48.24
2019-03-11T16:56:19.390Z,48.34
2019-03-11T16:58:50.514Z,47.90
2019-03-11T17:01:21.806Z,48.07
2019-03-11T17:03:53.019Z,47.96
2019-03-11T17:06:24.131Z,48.05
2019-03-11T17:08:55.465Z,48.17
2019-03-11T17:11:27.728Z,48.11
2019-03-11T17:13:58.753Z,48.35
2019-03-11T17:16:29.914Z,48.34
2019-03-11T17:19:01.138Z,48.43
2019-03-11T17:21:34.860Z,48.48
2019-03-11T17:24:06.046Z,48.49
2019-03-11T17:26:39.070Z,48.35
2019-03-11T17:29:10.202Z,48.19
2019-03-11T17:31:41.464Z,47.98
2019-03-11T17:34:12.581Z,48.14
2019-03-11T17:36:43.842Z,47.96
2019-03-11T17:39:15.060Z,47.93
2019-03-11T17:41:46.340Z,48.00
2019-03-11T17:44:17.766Z,48.15
2019-03-11T17:46:48.954Z,48.44
2019-03-11T17:49:20.019Z,48.43
2019-03-11T17:51:53.130Z,48.42
2019-03-11T17:54:24.417Z,48.71
2019-03-11T17:56:55.719Z,48.78
2019-03-11T17:59:26.992Z,49.02
2019-03-11T18:02:02.515Z,49.30
2019-03-11T18:04:35.250Z,49.24
2019-03-11T18:07:07.747Z,49.20
2019-03-11T18:09:38.911Z,49.08
2019-03-11T18:12:10.156Z,48.95
2019-03-11T18:14:41.494Z,48.83
2019-03-11T18:17:12.743Z,48.81
2019-03-11T18:19:43.959Z,48.94
2019-03-11T18:22:16.685Z,49.08
2019-03-11T18:24:47.991Z,49.34
2019-03-11T18:27:19.198Z,48.84
2019-03-11T18:29:50.422Z,49.04
2019-03-11T18:32:23.238Z,48.91
2019-03-11T18:34:55.468Z,48.89
2019-03-11T18:37:26.685Z,49.05
2019-03-11T18:39:57.773Z,49.28
2019-03-11T18:42:29.034Z,49.02
2019-03-11T18:45:00.455Z,49.20
2019-03-11T18:47:31.681Z,49.27
2019-03-11T18:50:03.001Z,49.27
2019-03-11T18:52:58.734Z,49.20
2019-03-11T18:55:30.041Z,49.27
2019-03-11T18:58:01.526Z,49.12
2019-03-11T19:00:32.773Z,48.98
2019-03-11T19:03:03.941Z,49.30
2019-03-11T19:05:35.161Z,49.01
2019-03-11T19:08:06.295Z,49.21
2019-03-11T19:10:37.666Z,49.50
2019-03-11T19:13:09.748Z,49.36
2019-03-11T19:15:41.003Z,49.37
2019-03-11T19:18:12.306Z,49.53
2019-03-11T19:20:43.581Z,49.53
2019-03-11T19:23:16.219Z,49.73
2019-03-11T19:25:47.216Z,49.85
2019-03-11T19:28:18.824Z,49.95
2019-03-11T19:30:50.213Z,49.88
2019-03-11T19:33:21.589Z,50.01
2019-03-11T19:35:52.727Z,50.04
2019-03-11T19:38:23.977Z,49.73
2019-03-11T19:40:55.094Z,49.93
2019-03-11T19:43:26.369Z,49.95
2019-03-11T19:46:01.544Z,50.12
2019-03-11T19:48:35.678Z,50.18
2019-03-11T19:51:06.972Z,50.24
2019-03-11T19:53:40.620Z,50.37
2019-03-11T19:56:13.122Z,50.49
2019-03-11T19:58:44.370Z,50.63
2019-03-11T20:01:15.657Z,50.30
2019-03-11T20:03:50.007Z,50.31
2019-03-11T20:06:21.186Z,50.28
2019-03-11T20:08:52.554Z,50.46
2019-03-11T20:11:25.094Z,50.57
2019-03-11T20:13:57.640Z,49.84
2019-03-11T20:16:28.982Z,49.74
2019-03-11T20:19:00.381Z,49.38
2019-03-11T20:21:32.472Z,49.28
2019-03-11T20:24:06.496Z,49.50
2019-03-11T20:26:37.723Z,49.23
2019-03-11T20:29:09.117Z,49.07
2019-03-11T20:31:40.303Z,48.89
2019-03-11T20:34:11.666Z,49.00
2019-03-11T20:36:46.470Z,49.07
2019-03-11T20:39:20.246Z,49.31
2019-03-11T20:41:52.223Z,49.13
2019-03-11T20:44:23.878Z,49.41
2019-03-11T20:46:55.412Z,49.14
2019-03-11T20:49:26.925Z,48.86
2019-03-11T20:52:03.461Z,48.75
2019-03-11T20:54:35.062Z,48.68
2019-03-11T20:57:06.670Z,48.47
2019-03-11T20:59:38.277Z,48.38
2019-03-11T21:02:09.695Z,48.36
2019-03-11T21:04:40.973Z,48.14
2019-03-11T21:07:12.674Z,48.25
2019-03-11T21:09:43.701Z,48.34
2019-03-11T21:12:15.041Z,48.56
2019-03-11T21:14:46.777Z,48.63
2019-03-11T21:17:25.739Z,48.96
2019-03-11T21:19:51.623Z,48.86
2019-03-11T21:22:23.248Z,49.06
2019-03-11T21:24:59.624Z,49.25
2019-03-11T21:27:27.947Z,49.58
2019-03-11T21:29:59.566Z,49.72
2019-03-11T21:32:31.090Z,49.47
2019-03-11T21:35:02.697Z,49.52
2019-03-11T21:37:34.315Z,49.62
2019-03-11T21:40:09.064Z,49.90
2019-03-11T21:42:41.549Z,50.04
2019-03-11T21:45:14.997Z,49.51
2019-03-11T21:47:47.056Z,49.55
2019-03-11T21:50:23.781Z,49.52
2019-03-11T21:52:55.415Z,49.16
2019-03-11T21:55:30.118Z,49.57
2019-03-11T21:58:12.577Z,49.33
2019-03-11T22:00:36.059Z,49.46
2019-03-11T22:03:07.286Z,49.26
2019-03-11T22:05:38.528Z,49.41
2019-03-11T22:08:09.863Z,49.26
2019-03-11T22:10:41.087Z,49.65
2019-03-11T22:13:12.320Z,49.56
2019-03-11T22:15:43.633Z,50.03
2019-03-11T22:18:16.611Z,50.38
2019-03-11T22:20:54.576Z,50.43
2019-03-11T22:23:26.861Z,50.52
2019-03-11T22:25:58.337Z,50.15
2019-03-11T22:28:29.749Z,50.45
2019-03-11T22:31:01.203Z,50.61
2019-03-11T22:33:34.975Z,50.59
2019-03-11T22:36:06.356Z,50.41
2019-03-11T22:38:37.685Z,50.32
2019-03-11T22:41:09.066Z,50.31
2019-03-11T22:43:41.125Z,50.79
2019-03-11T22:46:12.527Z,50.84
2019-03-11T22:48:43.776Z,51.07
2019-03-11T22:51:15.010Z,50.79
2019-03-11T22:53:46.577Z,51.12
2019-03-11T22:56:17.840Z,50.82
2019-03-11T22:58:48.975Z,51.07
2019-03-11T23:01:23.383Z,51.17
2019-03-11T23:03:54.716Z,51.59
2019-03-11T23:06:28.119Z,51.67
2019-03-11T23:08:59.230Z,51.59
2019-03-11T23:11:30.631Z,51.54
2019-03-11T23:14:01.954Z,52.20
2019-03-11T23:16:33.228Z,51.93
2019-03-11T23:19:04.684Z,52.15
2019-03-11T23:21:36.059Z,52.25
2019-03-11T23:24:07.369Z,52.46
2019-03-11T23:26:38.837Z,52.32
2019-03-11T23:29:10.334Z,52.55
2019-03-11T23:31:41.544Z,52.38
2019-03-11T23:34:12.810Z,52.32
2019-03-11T23:36:44.245Z,52.65
2019-03-11T23:39:15.468Z,52.46
2019-03-11T23:41:46.900Z,52.77
2019-03-11T23:44:18.299Z,52.91
2019-03-11T23:46:49.432Z,52.86
2019-03-11T23:49:20.513Z,52.81
2019-03-11T23:51:51.797Z,52.72
2019-03-11T23:54:22.945Z,52.98
2019-03-11T23:56:54.009Z,53.29
2019-03-11T23:59:25.108Z,53.00
